createdAt,value
2022-09-21T00:01:19.931Z,98829.56
2022-09-21T00:03:47.243Z,98837.31
2022-09-21T00:06:17.079Z,98826.75
2022-09-21T00:08:45.543Z,98824.97
2022-09-21T00:11:25.057Z,98828.44
2022-09-21T00:13:55.322Z,98825.72
2022-09-21T00:16:22.648Z,98823.13
2022-09-21T00:18:49.703Z,98824.78
2022-09-21T00:21:17.373Z,98833.47
2022-09-21T00:23:44.900Z,98823.72
2022-09-21T00:26:20.076Z,98821.84
2022-09-21T00:28:47.645Z,98825.34
2022-09-21T00:31:17.747Z,98823.72
2022-09-21T00:33:44.949Z,98830.63
2022-09-21T00:36:16.837Z,98828.84
2022-09-21T00:38:46.186Z,98828.63
2022-09-21T00:41:13.284Z,98827.84
2022-09-21T00:43:47.344Z,98823.22
2022-09-21T00:46:20.404Z,98827.44
2022-09-21T00:48:47.258Z,98830.88
2022-09-21T00:51:14.846Z,98829.03
2022-09-21T00:53:42.006Z,98833.31
2022-09-21T00:56:11.059Z,98828.97
2022-09-21T00:58:43.885Z,98828.91
2022-09-21T01:01:12.232Z,98824.50
2022-09-21T01:03:39.626Z,98833.31
2022-09-21T01:06:06.499Z,98823.53
2022-09-21T01:08:34.435Z,98825.16
2022-09-21T01:11:23.073Z,98825.94
2022-09-21T01:14:08.420Z,98833.00
2022-09-21T01:16:49.006Z,98835.53
2022-09-21T01:19:40.444Z,98826.66
2022-09-21T01:22:33.169Z,98831.88
2022-09-21T01:25:24.294Z,98834.50
2022-09-21T01:28:16.146Z,98830.09
2022-09-21T01:30:48.946Z,98825.69
2022-09-21T01:33:23.422Z,98830.16
2022-09-21T01:35:56.370Z,98819.63
2022-09-21T01:38:28.191Z,98819.50
2022-09-21T01:41:07.181Z,98829.09
2022-09-21T01:43:41.056Z,98833.44
2022-09-21T01:46:13.882Z,98831.59
2022-09-21T01:48:44.899Z,98828.97
2022-09-21T01:51:15.589Z,98827.25
2022-09-21T01:53:48.351Z,98834.28
2022-09-21T01:56:30.847Z,98826.41
2022-09-21T01:59:11.345Z,98834.28
2022-09-21T02:02:06.323Z,98832.66
2022-09-21T02:04:35.136Z,98832.72
2022-09-21T02:07:02.598Z,98839.75
2022-09-21T02:09:29.875Z,98834.63
2022-09-21T02:11:58.234Z,98835.50
2022-09-21T02:14:25.910Z,98840.03
2022-09-21T02:17:06.252Z,98838.31
2022-09-21T02:20:03.031Z,98830.63
2022-09-21T02:22:40.961Z,98837.59
2022-09-21T02:25:21.701Z,98839.38
2022-09-21T02:27:51.617Z,98831.31
2022-09-21T02:30:26.561Z,98839.16
2022-09-21T02:33:06.485Z,98838.31
2022-09-21T02:35:52.105Z,98833.06
2022-09-21T02:38:41.040Z,98844.44
2022-09-21T02:41:17.010Z,98849.75
2022-09-21T02:43:49.083Z,98841.94
2022-09-21T02:46:28.756Z,98849.06
2022-09-21T02:49:00.870Z,98846.28
2022-09-21T02:51:42.231Z,98840.22
2022-09-21T02:54:13.928Z,98846.22
2022-09-21T02:56:42.614Z,98849.69
2022-09-21T02:59:10.822Z,98851.53
2022-09-21T03:01:40.421Z,98844.44
2022-09-21T03:04:07.553Z,98854.06
2022-09-21T03:06:34.719Z,98854.84
2022-09-21T03:09:01.581Z,98853.91
2022-09-21T03:11:28.642Z,98861.75
2022-09-21T03:13:55.423Z,98859.97
2022-09-21T03:16:22.947Z,98852.94
2022-09-21T03:18:50.116Z,98857.34
2022-09-21T03:21:17.013Z,98856.50
2022-09-21T03:23:43.743Z,98860.03
2022-09-21T03:26:10.769Z,98857.34
2022-09-21T03:28:37.523Z,98862.66
2022-09-21T03:31:04.567Z,98862.66
2022-09-21T03:33:31.621Z,98858.34
2022-09-21T03:35:58.602Z,98859.03
2022-09-21T03:38:26.967Z,98860.69
2022-09-21T03:40:58.197Z,98864.31
2022-09-21T03:43:25.413Z,98862.47
2022-09-21T03:45:53.321Z,98861.56
2022-09-21T03:48:21.145Z,98864.84
2022-09-21T03:50:48.128Z,98872.59
2022-09-21T03:53:15.045Z,98864.66
2022-09-21T03:55:42.210Z,98863.66
2022-09-21T03:58:09.210Z,98866.22
2022-09-21T04:00:36.456Z,98869.66
2022-09-21T04:03:03.634Z,98863.38
2022-09-21T04:05:30.419Z,98869.66
2022-09-21T04:07:57.473Z,98870.50
2022-09-21T04:10:29.316Z,98867.72
2022-09-21T04:13:01.454Z,98866.88
2022-09-21T04:15:29.547Z,98871.22
2022-09-21T04:17:56.806Z,98867.66
2022-09-21T04:20:24.075Z,98867.47
2022-09-21T04:22:51.894Z,98872.72
2022-09-21T04:25:18.769Z,98873.53
2022-09-21T04:27:45.602Z,98877.88
2022-09-21T04:30:14.266Z,98870.88
2022-09-21T04:32:41.104Z,98870.94
2022-09-21T04:35:08.495Z,98872.63
2022-09-21T04:37:35.544Z,98865.75
2022-09-21T04:40:03.500Z,98873.47
2022-09-21T04:42:30.856Z,98872.47
2022-09-21T04:44:57.810Z,98873.31
2022-09-21T04:47:25.327Z,98877.59
2022-09-21T04:49:53.460Z,98886.28
2022-09-21T04:52:20.798Z,98889.66
2022-09-21T04:54:48.078Z,98882.53
2022-09-21T04:57:15.466Z,98896.72
2022-09-21T04:59:42.630Z,98901.88
2022-09-21T05:02:09.480Z,98900.97
2022-09-21T05:04:36.408Z,98904.47
2022-09-21T05:07:03.653Z,98910.47
2022-09-21T05:09:48.873Z,98907.88
2022-09-21T05:12:15.871Z,98907.16
2022-09-21T05:14:44.206Z,98910.94
2022-09-21T05:17:12.142Z,98913.56
2022-09-21T05:19:39.317Z,98906.50
2022-09-21T05:22:06.127Z,98912.63
2022-09-21T05:24:32.950Z,98910.13
2022-09-21T05:27:00.370Z,98916.19
2022-09-21T05:29:27.475Z,98926.53
2022-09-21T05:32:06.752Z,98921.31
2022-09-21T05:34:44.774Z,98920.69
2022-09-21T05:37:45.555Z,98922.31
2022-09-21T05:40:12.984Z,98925.81
2022-09-21T05:42:41.367Z,98917.06
2022-09-21T05:45:14.405Z,98922.19
2022-09-21T05:48:06.978Z,98930.06
2022-09-21T05:50:42.983Z,98931.13
2022-09-21T05:53:18.931Z,98931.13
2022-09-21T05:55:54.494Z,98932.72
2022-09-21T05:58:26.669Z,98934.25
2022-09-21T06:01:15.469Z,98939.50
2022-09-21T06:03:43.025Z,98942.16
2022-09-21T06:06:10.215Z,98937.72
2022-09-21T06:08:37.047Z,98938.50
2022-09-21T06:11:04.372Z,98929.56
2022-09-21T06:13:31.345Z,98941.78
2022-09-21T06:16:01.366Z,98932.78
2022-09-21T06:18:28.317Z,98934.56
2022-09-21T06:20:55.365Z,98937.97
2022-09-21T06:23:22.113Z,98933.44
2022-09-21T06:25:57.510Z,98931.63
2022-09-21T06:28:25.806Z,98937.69
2022-09-21T06:30:54.377Z,98944.81
2022-09-21T06:33:23.571Z,98938.50
2022-09-21T06:35:57.509Z,98941.97
2022-09-21T06:38:25.662Z,98944.34
2022-09-21T06:40:53.513Z,98945.97
2022-09-21T06:43:20.793Z,98951.00
2022-09-21T06:45:55.734Z,98944.72
2022-09-21T06:48:23.804Z,98949.00
2022-09-21T06:50:51.644Z,98953.28
2022-09-21T06:53:18.450Z,98953.22
2022-09-21T06:55:45.254Z,98953.06
2022-09-21T06:58:12.316Z,98957.38
2022-09-21T07:00:39.114Z,98956.56
2022-09-21T07:03:05.966Z,98959.06
2022-09-21T07:05:34.267Z,98960.06
2022-09-21T07:08:01.325Z,98956.47
2022-09-21T07:10:28.603Z,98966.81
2022-09-21T07:12:55.913Z,98971.13
2022-09-21T07:15:23.713Z,98962.22
2022-09-21T07:17:52.409Z,98969.78
2022-09-21T07:20:19.631Z,98959.63
2022-09-21T07:22:46.363Z,98964.41
2022-09-21T07:25:13.544Z,98967.56
2022-09-21T07:27:40.734Z,98968.72
2022-09-21T07:30:09.198Z,98971.94
2022-09-21T07:32:36.574Z,98974.41
2022-09-21T07:35:03.879Z,98975.34
2022-09-21T07:37:31.729Z,98982.34
2022-09-21T07:39:58.864Z,98977.06
2022-09-21T07:42:27.985Z,98987.31
2022-09-21T07:45:03.314Z,98982.91
2022-09-21T07:47:31.518Z,98984.69
2022-09-21T07:49:58.379Z,98988.19
2022-09-21T07:52:25.189Z,98987.88
2022-09-21T07:54:52.204Z,98984.19
2022-09-21T07:57:37.373Z,98986.50
2022-09-21T08:00:05.334Z,98985.59
2022-09-21T08:02:32.215Z,98989.69
2022-09-21T08:04:59.078Z,98991.66
2022-09-21T08:07:27.916Z,98991.09
2022-09-21T08:09:54.706Z,98992.78
2022-09-21T08:12:21.568Z,98989.22
2022-09-21T08:14:48.580Z,98993.50
2022-09-21T08:17:15.698Z,98990.56
2022-09-21T08:19:42.630Z,98994.91
2022-09-21T08:22:09.460Z,99001.75
2022-09-21T08:24:37.675Z,99005.81
2022-09-21T08:27:05.142Z,99009.41
2022-09-21T08:29:31.911Z,99010.53
2022-09-21T08:31:58.850Z,99018.47
2022-09-21T08:34:26.448Z,99008.44
2022-09-21T08:36:55.676Z,99009.69
2022-09-21T08:39:22.803Z,99011.94
2022-09-21T08:41:49.748Z,99013.38
2022-09-21T08:44:45.650Z,99014.31
2022-09-21T08:47:20.262Z,99004.53
2022-09-21T08:49:55.458Z,99013.91
2022-09-21T08:52:25.128Z,99021.69
2022-09-21T08:54:51.813Z,99012.78
2022-09-21T08:57:20.446Z,99019.59
2022-09-21T08:59:49.520Z,99018.44
2022-09-21T09:02:31.530Z,99020.06
2022-09-21T09:05:12.731Z,99014.53
2022-09-21T09:07:59.602Z,99012.06
2022-09-21T09:10:43.500Z,99014.47
2022-09-21T09:13:34.703Z,99018.47
2022-09-21T09:16:41.712Z,99007.16
2022-09-21T09:19:30.199Z,99005.81
2022-09-21T09:21:57.382Z,99000.38
2022-09-21T09:24:49.000Z,99000.38
2022-09-21T09:27:27.678Z,98998.84
2022-09-21T09:30:15.147Z,99003.72
2022-09-21T09:32:57.895Z,98999.09
2022-09-21T09:35:33.198Z,98998.16
2022-09-21T09:38:10.661Z,99003.88
2022-09-21T09:41:11.243Z,99003.53
2022-09-21T09:43:47.238Z,98996.97
2022-09-21T09:46:19.951Z,98997.97
2022-09-21T09:49:12.286Z,99011.50
2022-09-21T09:51:40.641Z,98999.16
2022-09-21T09:54:15.004Z,99000.44
2022-09-21T09:56:42.370Z,98993.59
2022-09-21T09:59:30.577Z,98992.09
2022-09-21T10:02:20.316Z,98992.28
2022-09-21T10:05:06.137Z,98998.59
2022-09-21T10:07:43.454Z,98996.72
2022-09-21T10:10:28.814Z,99004.16
2022-09-21T10:13:03.080Z,98999.47
2022-09-21T10:15:30.153Z,98994.91
2022-09-21T10:18:08.436Z,98997.25
2022-09-21T10:20:35.484Z,99005.06
2022-09-21T10:23:03.438Z,98991.53
2022-09-21T10:25:31.265Z,99000.38
2022-09-21T10:27:59.286Z,99000.53
2022-09-21T10:30:38.849Z,98993.44
2022-09-21T10:33:23.974Z,98990.25
2022-09-21T10:35:52.933Z,98998.13
2022-09-21T10:38:27.659Z,98988.94
2022-09-21T10:40:55.116Z,98978.09
2022-09-21T10:43:39.816Z,98983.75
2022-09-21T10:46:09.564Z,98985.53
2022-09-21T10:48:37.504Z,98996.75
2022-09-21T10:51:04.753Z,98987.47
2022-09-21T10:53:36.894Z,98983.38
2022-09-21T10:56:16.035Z,98984.56
2022-09-21T10:59:20.707Z,98995.63
2022-09-21T11:01:50.872Z,98994.25
2022-09-21T11:04:20.841Z,99005.25
2022-09-21T11:06:52.860Z,99007.78
2022-09-21T11:09:32.288Z,98993.75
2022-09-21T11:12:23.878Z,98997.97
2022-09-21T11:15:00.943Z,98998.50
2022-09-21T11:17:48.894Z,99012.13
2022-09-21T11:20:30.962Z,98996.84
2022-09-21T11:23:05.080Z,99000.13
2022-09-21T11:25:44.306Z,98994.56
2022-09-21T11:28:25.179Z,98992.59
2022-09-21T11:31:13.357Z,98989.28
2022-09-21T11:33:58.960Z,98992.22
2022-09-21T11:36:35.508Z,99000.88
2022-09-21T11:39:11.091Z,99000.69
2022-09-21T11:41:57.344Z,98996.59
2022-09-21T11:44:38.901Z,98990.63
2022-09-21T11:47:18.785Z,98997.22
2022-09-21T11:50:26.383Z,98992.56
2022-09-21T11:53:25.568Z,98980.84
2022-09-21T11:56:07.204Z,98984.47
2022-09-21T11:58:47.478Z,98974.91
2022-09-21T12:01:36.820Z,98975.75
2022-09-21T12:04:15.717Z,98973.13
2022-09-21T12:06:50.105Z,98975.09
2022-09-21T12:09:23.119Z,98975.22
2022-09-21T12:12:22.459Z,98967.41
2022-09-21T12:14:59.756Z,98972.44
2022-09-21T12:17:45.487Z,98973.03
2022-09-21T12:20:18.065Z,98970.38
2022-09-21T12:22:47.356Z,98964.63
2022-09-21T12:25:20.143Z,98968.41
2022-09-21T12:27:56.736Z,98971.06
2022-09-21T12:30:24.708Z,98966.38
2022-09-21T12:33:01.878Z,98968.97
2022-09-21T12:35:40.840Z,98959.75
2022-09-21T12:38:07.908Z,98964.00
2022-09-21T12:41:27.391Z,98963.97
2022-09-21T12:44:18.516Z,98959.19
2022-09-21T12:46:54.328Z,98963.91
2022-09-21T12:49:29.911Z,98962.38
2022-09-21T12:52:03.317Z,98955.84
2022-09-21T12:54:48.201Z,98964.91
2022-09-21T12:57:58.716Z,98960.94
2022-09-21T13:00:35.109Z,98967.88
2022-09-21T13:03:37.838Z,98963.63
2022-09-21T13:06:41.644Z,98971.56
2022-09-21T13:09:12.705Z,98966.03
2022-09-21T13:11:54.536Z,98969.81
2022-09-21T13:14:24.295Z,98960.22
2022-09-21T13:16:57.787Z,98964.50
2022-09-21T13:19:27.092Z,98957.06
2022-09-21T13:22:19.952Z,98957.53
2022-09-21T13:25:03.109Z,98955.28
2022-09-21T13:28:09.407Z,98950.75
2022-09-21T13:30:44.735Z,98955.78
2022-09-21T13:33:20.696Z,98959.81
2022-09-21T13:35:50.805Z,98959.69
2022-09-21T13:38:34.593Z,98972.19
2022-09-21T13:41:02.989Z,98964.66
2022-09-21T13:44:05.127Z,98967.72
2022-09-21T13:46:35.271Z,98965.28
2022-09-21T13:49:11.488Z,98963.56
2022-09-21T13:52:01.598Z,98958.06
2022-09-21T13:55:00.010Z,98961.47
2022-09-21T13:57:46.317Z,98960.59
2022-09-21T14:00:13.129Z,98960.81
2022-09-21T14:02:44.880Z,98957.41
2022-09-21T14:05:28.450Z,98961.19
2022-09-21T14:08:03.010Z,98972.31
2022-09-21T14:10:32.686Z,98967.38
2022-09-21T14:13:02.083Z,98964.94
2022-09-21T14:15:38.165Z,98965.31
2022-09-21T14:18:17.261Z,98959.44
2022-09-21T14:21:17.333Z,98956.13
2022-09-21T14:24:06.171Z,98961.97
2022-09-21T14:26:50.344Z,98963.97
2022-09-21T14:29:36.383Z,98962.44
2022-09-21T14:32:05.604Z,98971.19
2022-09-21T14:34:36.825Z,98976.88
2022-09-21T14:37:16.977Z,98970.13
2022-09-21T14:39:45.780Z,98968.22
2022-09-21T14:42:19.546Z,98966.97
2022-09-21T14:44:51.446Z,98969.59
2022-09-21T14:47:36.663Z,98969.09
2022-09-21T14:50:24.142Z,98964.06
2022-09-21T14:53:28.313Z,98963.97
2022-09-21T14:56:13.661Z,98964.72
2022-09-21T14:58:54.143Z,98963.75
2022-09-21T15:01:37.904Z,98960.25
2022-09-21T15:04:29.277Z,98962.28
2022-09-21T15:07:27.857Z,98969.78
2022-09-21T15:10:37.960Z,98958.63
2022-09-21T15:13:08.284Z,98960.91
2022-09-21T15:16:21.989Z,98971.47
2022-09-21T15:18:54.446Z,98966.44
2022-09-21T15:21:27.876Z,98969.50
2022-09-21T15:23:56.286Z,98967.84
2022-09-21T15:26:26.847Z,98967.00
2022-09-21T15:29:12.295Z,98967.84
2022-09-21T15:31:42.069Z,98967.09
2022-09-21T15:34:11.141Z,98975.84
2022-09-21T15:36:43.267Z,98976.75
2022-09-21T15:39:30.384Z,98981.22
2022-09-21T15:42:09.366Z,98976.03
2022-09-21T15:44:38.586Z,98978.19
2022-09-21T15:47:12.631Z,98977.94
2022-09-21T15:49:41.253Z,98980.22
2022-09-21T15:52:13.901Z,98987.13
2022-09-21T15:54:45.005Z,98988.63
2022-09-21T15:57:39.117Z,98991.16
2022-09-21T16:00:21.568Z,98993.50
2022-09-21T16:03:05.723Z,98991.56
2022-09-21T16:06:17.057Z,98996.03
2022-09-21T16:08:43.879Z,98996.84
2022-09-21T16:11:19.129Z,98990.69
2022-09-21T16:14:06.340Z,98994.78
2022-09-21T16:16:33.484Z,98991.19
2022-09-21T16:19:00.337Z,99003.13
2022-09-21T16:21:29.293Z,99008.16
2022-09-21T16:23:58.180Z,99005.88
2022-09-21T16:26:30.179Z,99005.41
2022-09-21T16:29:26.438Z,99007.59
2022-09-21T16:32:19.001Z,99004.34
2022-09-21T16:34:51.850Z,99010.78
2022-09-21T16:37:24.647Z,99008.50
2022-09-21T16:39:54.010Z,99014.06
2022-09-21T16:42:22.850Z,99007.28
2022-09-21T16:44:50.480Z,99015.41
2022-09-21T16:47:28.179Z,99022.59
2022-09-21T16:50:00.278Z,99025.16
2022-09-21T16:52:29.268Z,99023.31
2022-09-21T16:54:58.125Z,99018.19
2022-09-21T16:57:26.066Z,99027.44
2022-09-21T16:59:53.676Z,99031.31
2022-09-21T17:02:20.861Z,99029.94
2022-09-21T17:04:48.236Z,99031.94
2022-09-21T17:07:16.789Z,99038.16
2022-09-21T17:09:47.647Z,99031.19
2022-09-21T17:12:17.763Z,99036.47
2022-09-21T17:14:47.064Z,99039.09
2022-09-21T17:17:24.331Z,99043.88
2022-09-21T17:19:53.657Z,99045.47
2022-09-21T17:22:21.943Z,99046.16
2022-09-21T17:25:00.151Z,99045.16
2022-09-21T17:27:29.207Z,99055.59
2022-09-21T17:29:56.536Z,99050.97
2022-09-21T17:32:24.740Z,99046.44
2022-09-21T17:35:01.789Z,99042.03
2022-09-21T17:37:29.359Z,99048.09
2022-09-21T17:39:56.389Z,99048.09
2022-09-21T17:42:25.194Z,99048.94
2022-09-21T17:45:15.228Z,99051.78
2022-09-21T17:47:42.572Z,99054.66
2022-09-21T17:50:12.026Z,99053.09
2022-09-21T17:53:01.533Z,99054.06
2022-09-21T17:55:29.180Z,99065.66
2022-09-21T17:58:05.874Z,99064.03
2022-09-21T18:00:35.880Z,99058.03
2022-09-21T18:03:02.936Z,99059.09
2022-09-21T18:05:30.861Z,99062.78
2022-09-21T18:07:58.424Z,99057.63
2022-09-21T18:10:27.231Z,99056.91
2022-09-21T18:13:07.320Z,99059.69
2022-09-21T18:15:34.364Z,99065.84
2022-09-21T18:18:10.017Z,99069.41
2022-09-21T18:20:52.580Z,99069.47
2022-09-21T18:23:19.481Z,99069.47
2022-09-21T18:25:49.708Z,99067.63
2022-09-21T18:28:58.179Z,99064.16
2022-09-21T18:31:43.997Z,99073.66
2022-09-21T18:34:29.317Z,99068.97
2022-09-21T18:37:18.797Z,99069.69
2022-09-21T18:40:04.455Z,99081.03
2022-09-21T18:42:53.227Z,99073.84
2022-09-21T18:45:28.619Z,99075.50
2022-09-21T18:48:26.761Z,99075.50
2022-09-21T18:51:21.775Z,99072.72
2022-09-21T18:53:57.174Z,99075.25
2022-09-21T18:56:27.084Z,99074.25
2022-09-21T18:58:54.382Z,99072.31
2022-09-21T19:01:22.861Z,99080.97
2022-09-21T19:03:50.583Z,99073.78
2022-09-21T19:06:29.701Z,99075.34
2022-09-21T19:08:59.269Z,99079.59
2022-09-21T19:11:32.294Z,99076.84
2022-09-21T19:14:17.570Z,99073.09
2022-09-21T19:16:53.712Z,99081.75
2022-09-21T19:19:39.430Z,99086.97
2022-09-21T19:22:35.278Z,99101.91
2022-09-21T19:25:12.494Z,99096.72
2022-09-21T19:27:43.959Z,99095.00
2022-09-21T19:30:15.619Z,99103.00
2022-09-21T19:32:56.619Z,99087.38
2022-09-21T19:35:32.111Z,99087.50
2022-09-21T19:38:04.099Z,99091.06
2022-09-21T19:40:33.774Z,99086.84
2022-09-21T19:43:17.432Z,99081.69
2022-09-21T19:46:23.856Z,99092.44
2022-09-21T19:48:55.629Z,99085.50
2022-09-21T19:51:37.812Z,99083.03
2022-09-21T19:54:31.936Z,99091.97
2022-09-21T19:57:17.469Z,99100.69
2022-09-21T19:59:45.017Z,99100.63
2022-09-21T20:02:14.853Z,99106.75
2022-09-21T20:05:05.766Z,99096.19
2022-09-21T20:07:51.938Z,99097.91
2022-09-21T20:10:42.138Z,99098.84
2022-09-21T20:13:27.759Z,99098.00
2022-09-21T20:16:31.867Z,99096.25
2022-09-21T20:19:11.727Z,99096.41
2022-09-21T20:21:41.633Z,99094.75
2022-09-21T20:36:57.272Z,99098.03
2022-09-21T20:39:24.376Z,99101.28
2022-09-21T20:41:52.614Z,99099.19
2022-09-21T20:44:19.476Z,99099.63
2022-09-21T20:46:46.577Z,99098.28
2022-09-21T20:49:15.383Z,99094.16
2022-09-21T20:51:42.613Z,99087.59
2022-09-21T20:54:09.720Z,99092.19
2022-09-21T20:56:37.039Z,99095.06
2022-09-21T20:59:03.916Z,99079.47
2022-09-21T21:01:31.092Z,99093.56
2022-09-21T21:04:02.879Z,99084.91
2022-09-21T21:06:35.059Z,99086.75
2022-09-21T21:09:02.107Z,99084.31
2022-09-21T21:11:29.023Z,99083.50
2022-09-21T21:13:56.329Z,99087.25
2022-09-21T21:16:23.704Z,99083.84
2022-09-21T21:18:51.283Z,99082.03
2022-09-21T21:21:18.125Z,99087.25
2022-09-21T21:24:07.930Z,99080.25
2022-09-21T21:27:00.232Z,99080.22
2022-09-21T21:29:23.047Z,99078.50
2022-09-21T21:31:50.474Z,99074.94
2022-09-21T21:34:17.937Z,99074.94
2022-09-21T21:36:45.562Z,99071.50
2022-09-21T21:39:12.475Z,99077.75
2022-09-21T21:41:39.370Z,99075.97
2022-09-21T21:44:06.691Z,99070.81
2022-09-21T21:46:33.641Z,99069.06
2022-09-21T21:49:00.565Z,99076.13
2022-09-21T21:51:27.873Z,99074.41
2022-09-21T21:53:54.653Z,99071.84
2022-09-21T21:56:23.269Z,99076.16
2022-09-21T21:58:54.596Z,99071.09
2022-09-21T22:01:26.451Z,99068.41
2022-09-21T22:03:58.881Z,99075.44
2022-09-21T22:06:27.319Z,99077.19
2022-09-21T22:08:56.187Z,99074.66
2022-09-21T22:11:24.553Z,99060.63
2022-09-21T22:13:53.941Z,99069.38
2022-09-21T22:16:22.939Z,99066.81
2022-09-21T22:18:50.829Z,99065.09
2022-09-21T22:21:26.859Z,99062.66
2022-09-21T22:23:56.211Z,99063.50
2022-09-21T22:26:24.176Z,99061.84
2022-09-21T22:28:57.797Z,99065.47
2022-09-21T22:31:27.947Z,99067.16
2022-09-21T22:33:56.533Z,99063.69
2022-09-21T22:36:25.322Z,99058.34
2022-09-21T22:38:53.577Z,99059.31
2022-09-21T22:41:23.180Z,99062.75
2022-09-21T22:43:52.134Z,99064.50
2022-09-21T22:46:20.161Z,99062.56
2022-09-21T22:48:47.859Z,99065.28
2022-09-21T22:51:16.464Z,99059.03
2022-09-21T22:53:43.739Z,99055.41
2022-09-21T22:56:16.490Z,99058.94
2022-09-21T22:58:45.851Z,99057.13
2022-09-21T23:01:13.134Z,99050.94
2022-09-21T23:03:41.950Z,99058.78
2022-09-21T23:06:11.751Z,99060.50
2022-09-21T23:08:39.775Z,99050.81
2022-09-21T23:11:13.893Z,99056.09
2022-09-21T23:13:41.635Z,99041.22
2022-09-21T23:16:11.410Z,99045.56
2022-09-21T23:18:40.181Z,99047.19
2022-09-21T23:21:11.420Z,99049.91
2022-09-21T23:23:38.860Z,99049.16
2022-09-21T23:26:07.252Z,99043.91
2022-09-21T23:28:36.107Z,99048.38
2022-09-21T23:31:06.448Z,99049.22
2022-09-21T23:33:36.011Z,99047.53
2022-09-21T23:36:04.613Z,99051.81
2022-09-21T23:38:32.056Z,99050.94
2022-09-21T23:41:06.363Z,99041.31
2022-09-21T23:43:34.710Z,99050.03
2022-09-21T23:46:02.134Z,99045.75
2022-09-21T23:48:29.265Z,99044.09
2022-09-21T23:50:57.682Z,99050.22
2022-09-21T23:53:25.721Z,99048.44
2022-09-21T23:55:52.704Z,99050.22
2022-09-21T23:58:20.572Z,99047.63
